Selah, Washington
Current Conditions -  °F | °C
As of 10:56 AM on Saturday 25 Oct 2014 (Local Time) from K1YT Reporting Station
Broken Clouds Broken Clouds  
Wind Chill: 53°   Ceiling: 8500
Heat Index: 53°   Visibility: 10mi
Dew Point: 46°   Wind: 7mph
Humidity: 76%   Direction: 50°NE
Pressure: 29.61"   Gusts: NA
Location:  46.65°N, 120.53°W
Report Text: K1YT 251756Z AUTO 05006KT 10SM SCT034 BKN085 12/08 A2961 RMK AO2 SLPNO T01180077 10118 20081 57015
Loading
Personal Weather Stations






























Interactive Weather Map New forecast layout! Learn more

10-Day Weather Forecast

Advertisements
Track Severe Weather on mobile